createdAt,value
2023-02-09T00:04:53.598Z,1.50
2023-02-09T00:14:53.649Z,2.19
2023-02-09T00:24:55.510Z,1.99
2023-02-09T00:34:55.661Z,2.99
2023-02-09T00:44:55.657Z,2.39
2023-02-09T00:54:55.601Z,2.29
2023-02-09T01:04:55.666Z,1.29
2023-02-09T01:14:55.646Z,3.19
2023-02-09T01:24:55.648Z,3.68
2023-02-09T01:34:55.661Z,3.19
2023-02-09T01:44:56.887Z,2.79
2023-02-09T01:54:56.797Z,1.89
2023-02-09T02:04:56.705Z,3.09
2023-02-09T02:14:56.817Z,2.19
2023-02-09T02:24:56.784Z,2.49
2023-02-09T02:34:56.683Z,3.48
2023-02-09T02:44:56.722Z,3.58
2023-02-09T02:54:56.689Z,3.38
2023-02-09T03:04:56.743Z,4.08
2023-02-09T03:14:56.779Z,3.78
2023-02-09T03:24:56.746Z,4.08
2023-02-09T03:34:56.740Z,4.07
2023-02-09T03:44:56.837Z,2.58
2023-02-09T03:54:56.754Z,1.69
2023-02-09T04:04:56.783Z,1.89
2023-02-09T04:14:56.870Z,4.17
2023-02-09T04:24:56.808Z,4.67
2023-02-09T04:34:56.783Z,2.68
2023-02-09T04:44:56.879Z,3.47
2023-02-09T04:54:56.806Z,2.38
2023-02-09T05:04:56.816Z,2.98
2023-02-09T05:14:56.921Z,4.76
2023-02-09T05:24:56.834Z,3.57
2023-02-09T05:34:56.957Z,3.37
2023-02-09T05:44:56.971Z,4.86
2023-02-09T05:54:56.904Z,5.65
2023-02-09T06:04:56.954Z,2.18
2023-02-09T06:14:56.948Z,3.57
2023-02-09T06:24:56.994Z,4.36
2023-02-09T06:34:56.936Z,3.37
2023-02-09T06:44:58.861Z,3.17
2023-02-09T06:54:59.094Z,3.56
2023-02-09T07:04:59.284Z,4.85
2023-02-09T07:14:59.116Z,5.84
2023-02-09T07:24:59.075Z,5.84
2023-02-09T07:34:59.055Z,4.75
2023-02-09T07:44:59.089Z,5.65
2023-02-09T07:54:59.091Z,0.40
2023-02-09T08:04:59.175Z,7.44
2023-02-09T08:14:59.069Z,6.45
2023-02-09T08:24:59.070Z,4.27
2023-02-09T08:34:59.077Z,4.27
2023-02-09T08:44:59.150Z,6.95
2023-02-09T08:54:59.072Z,4.57
2023-02-09T09:04:59.091Z,2.78
2023-02-09T09:14:59.099Z,4.37
2023-02-09T09:24:59.253Z,6.67
2023-02-09T09:34:59.103Z,5.68
2023-02-09T09:44:59.188Z,7.67
2023-02-09T09:54:59.499Z,6.68
2023-02-09T10:04:59.223Z,5.68
2023-02-09T10:14:59.193Z,3.79
2023-02-09T10:24:59.643Z,7.28
2023-02-09T10:35:02.087Z,4.29
2023-02-09T10:45:02.228Z,4.29
2023-02-09T10:55:02.385Z,4.49
2023-02-09T11:05:02.276Z,4.59
2023-02-09T11:15:02.427Z,6.79
2023-02-09T11:25:02.402Z,4.59
2023-02-09T11:35:02.446Z,3.79
2023-02-09T11:45:02.371Z,3.79
2023-02-09T11:55:02.337Z,4.89
2023-02-09T12:05:02.288Z,5.59
2023-02-09T12:15:04.721Z,6.49
2023-02-09T12:25:05.490Z,4.00
2023-02-09T12:35:05.353Z,3.40
2023-02-09T12:45:05.359Z,2.80
2023-02-09T12:55:05.376Z,3.80
2023-02-09T13:05:05.425Z,2.40
2023-02-09T13:15:05.423Z,5.10
2023-02-09T13:25:05.440Z,2.70
2023-02-09T13:35:05.432Z,4.80
2023-02-09T13:45:05.419Z,3.90
2023-02-09T13:55:08.609Z,4.90
2023-02-09T14:05:08.506Z,3.00
2023-02-09T14:15:30.973Z,3.80
2023-02-09T14:25:31.648Z,3.60
2023-02-09T14:35:32.644Z,3.20
2023-02-09T14:45:32.497Z,5.79
2023-02-09T14:55:34.892Z,8.09
2023-02-09T15:05:34.532Z,3.30
2023-02-09T15:15:36.478Z,5.19
2023-02-09T15:25:36.579Z,3.90
2023-02-09T15:35:36.548Z,4.79
2023-02-09T15:45:54.835Z,3.79
2023-02-09T15:55:58.531Z,4.29
2023-02-09T16:05:57.677Z,4.69
2023-02-09T16:16:05.190Z,4.89
2023-02-09T16:26:01.742Z,2.70
2023-02-09T16:36:01.675Z,3.59
2023-02-09T16:46:04.003Z,4.79
2023-02-09T16:56:04.525Z,7.68
2023-02-09T17:06:04.693Z,2.89
2023-02-09T17:16:04.774Z,5.78
2023-02-09T17:26:04.762Z,5.18
2023-02-09T17:46:08.656Z,6.68
2023-02-09T17:56:08.803Z,8.37
2023-02-09T18:06:08.805Z,7.57
2023-02-09T18:16:08.737Z,7.87
2023-02-09T18:26:08.783Z,5.88
2023-02-09T18:36:08.854Z,4.08
2023-02-09T18:46:08.797Z,7.86
2023-02-09T18:56:08.857Z,5.57
2023-02-09T19:06:08.967Z,6.07
2023-02-09T19:16:08.874Z,4.88
2023-02-09T19:26:08.816Z,6.96
2023-02-09T19:36:08.931Z,7.06
2023-02-09T19:46:09.658Z,7.66
2023-02-09T19:56:10.115Z,7.46
2023-02-09T20:06:09.829Z,6.86
2023-02-09T20:16:09.916Z,5.07
2023-02-09T20:26:09.969Z,5.37
2023-02-09T20:36:09.998Z,7.36
2023-02-09T20:46:28.336Z,9.14
2023-02-09T20:56:28.925Z,7.45
2023-02-09T21:06:29.388Z,7.75
2023-02-09T21:16:30.302Z,13.20
2023-02-09T21:26:30.961Z,10.42
2023-02-09T21:36:31.550Z,10.71
2023-02-09T21:46:32.567Z,9.71
2023-02-09T21:56:32.986Z,10.20
2023-02-09T22:06:33.069Z,11.18
2023-02-09T22:16:33.102Z,7.52
2023-02-09T22:26:33.035Z,9.68
2023-02-09T22:36:33.069Z,10.46
2023-02-09T22:46:33.094Z,9.96
2023-02-09T22:56:33.053Z,11.83
2023-02-09T23:06:33.150Z,8.87
2023-02-09T23:16:33.120Z,10.54
2023-02-09T23:26:33.304Z,9.26
2023-02-09T23:36:33.440Z,11.22
2023-02-09T23:46:33.320Z,8.46
2023-02-09T23:56:35.002Z,11.60
